As Valentia — A8SO8 — position and weather

sailwx.info

Track history (hours):
 
Tides and Currents Weather Stations Pressure Air Temp Water Temp Dewpoint Dewpoint Depression Visibility Wind Speed Wind Dir Waves Ship Positions

As Valentia

Last reported at 2017-Nov-12 06:25 UTC. Time now 2017-Dec-17 10:03 UTC.
Position N 01°15' E 104°01'.
Warning: this ship's position is 35 days out of date.

Length 190 m; draft 12.3 m.

Type: Cargo ship. MMSI: 636091770.

Date/timePositionNaut miles runAvg speedWind from/ knotsBaromVisibWave heightAir tempDewpointWater temp
2017-Nov-12 06:25N 01°15' E 104°01'3 0.3
2017-Nov-11 19:52N 01°17' E 103°59'0 0.1
2017-Nov-11 19:25N 01°17' E 103°59'0 0.0
2017-Nov-11 08:25N 01°17' E 103°59'0 0.1
2017-Nov-11 07:55N 01°17' E 103°59'2 3.8
2017-Nov-11 07:31N 01°16' E 103°58'2 4.8
2017-Nov-11 07:01N 01°14' E 103°57'0 0.9
2017-Nov-11 06:31N 01°14' E 103°57'1 2.1
2017-Nov-11 06:01N 01°13' E 103°56'3 5.1
2017-Nov-11 05:28N 01°12' E 103°53'2 5.0
2017-Nov-11 05:00N 01°11' E 103°51'3 5.7
2017-Nov-11 04:31N 01°10' E 103°49'2 4.0
2017-Nov-11 04:01N 01°09' E 103°47'2 4.5
2017-Nov-11 03:30N 01°07' E 103°45'2 4.8
2017-Nov-11 03:01N 01°05' E 103°44'2 4.2
2017-Nov-11 02:31N 01°04' E 103°42'2 4.1
2017-Nov-11 02:00N 01°03' E 103°40'2 3.9
2017-Nov-11 01:25N 01°03' E 103°38'3 7.6
2017-Nov-11 00:59N 01°05' E 103°35'511.0
2017-Nov-11 00:30N 01°07' E 103°31'611.2
2017-Nov-10 23:58N 01°10' E 103°26'  
Track history (hours):
 
Tides and Currents Weather Stations Pressure Air Temp Water Temp Dewpoint Dewpoint Depression Visibility Wind Speed Wind Dir Waves Ship Positions

As Valentia

Last reported at 2017-Nov-12 06:25 UTC. Time now 2017-Dec-17 10:03 UTC.
Position N 01°15' E 104°01'.
Warning: this ship's position is 35 days out of date.

Length 190 m; draft 12.3 m.

Type: Cargo ship. MMSI: 636091770.

Date/timePositionNaut miles runAvg speedWind from/ knotsBaromVisibWave heightAir tempDewpointWater temp
2017-Nov-12 06:25N 01°15' E 104°01'3 0.3
2017-Nov-11 19:52N 01°17' E 103°59'0 0.1
2017-Nov-11 19:25N 01°17' E 103°59'0 0.0
2017-Nov-11 08:25N 01°17' E 103°59'0 0.1
2017-Nov-11 07:55N 01°17' E 103°59'2 3.8
2017-Nov-11 07:31N 01°16' E 103°58'2 4.8
2017-Nov-11 07:01N 01°14' E 103°57'0 0.9
2017-Nov-11 06:31N 01°14' E 103°57'1 2.1
2017-Nov-11 06:01N 01°13' E 103°56'3 5.1
2017-Nov-11 05:28N 01°12' E 103°53'2 5.0
2017-Nov-11 05:00N 01°11' E 103°51'3 5.7
2017-Nov-11 04:31N 01°10' E 103°49'2 4.0
2017-Nov-11 04:01N 01°09' E 103°47'2 4.5
2017-Nov-11 03:30N 01°07' E 103°45'2 4.8
2017-Nov-11 03:01N 01°05' E 103°44'2 4.2
2017-Nov-11 02:31N 01°04' E 103°42'2 4.1
2017-Nov-11 02:00N 01°03' E 103°40'2 3.9
2017-Nov-11 01:25N 01°03' E 103°38'3 7.6
2017-Nov-11 00:59N 01°05' E 103°35'511.0
2017-Nov-11 00:30N 01°07' E 103°31'611.2
2017-Nov-10 23:58N 01°10' E 103°26'  

Dump ship's entire track history